Terminal Aerodrome Forecast
Issued by NWS Jackson, KY

Home | Current Version | Previous Version | Text Only | Print | Product List | Glossary On
Versions: 1 2 3 4 5 6 7 8 9 10 11 12 13 14 15 16
411
FTUS43 KJKL 250707 AAA
TAFJKL
TAF AMD
KJKL 250707Z 2507/2606 25008KT 3SM SHRA BR VCTS SCT020 BKN045CB
     FM250800 29009KT 5SM -SHRA BR OVC035
     FM251200 27010KT P6SM VCSH OVC060
     FM260000 28009KT P6SM BKN040=

USA.gov is the U.S. government's official web portal to all federal, state and local government web resources and services.